East Concord, New York
Current Conditions -  °F | °C
As of 2:15 AM on Wednesday 22 Oct 2014 (Local Time) from KOLE Reporting Station
Overcast Overcast  
Wind Chill: 34°   Ceiling: 300
Heat Index: 39°   Visibility: 7mi
Dew Point: 39°   Wind: 8mph
Humidity: 100%   Direction: 10°N
Pressure: 30.03"   Gusts: 18mph
Location:  42.55°N, 78.64°W
Report Text: KOLE 220615Z AUTO 01007G16KT 7SM OVC003 04/04 A3003 RMK AO2
Loading
Personal Weather Stations






























Interactive Weather Map
Tropical Storm Tracking
New forecast layout! Learn more

10-Day Weather Forecast

Advertisements
Track Severe Weather on mobile